sensor_id;sensor_type;location;lat;lon;timestamp;temperature;humidity
14409;DHT22;7289;50.706;4.992;2023-07-20T00:01:19;16.50;99.90
14409;DHT22;7289;50.706;4.992;2023-07-20T00:03:48;16.60;99.90
14409;DHT22;7289;50.706;4.992;2023-07-20T00:06:22;16.60;99.90
14409;DHT22;7289;50.706;4.992;2023-07-20T00:08:51;16.60;99.90
14409;DHT22;7289;50.706;4.992;2023-07-20T00:11:20;16.60;99.90
14409;DHT22;7289;50.706;4.992;2023-07-20T00:13:49;16.70;99.90
14409;DHT22;7289;50.706;4.992;2023-07-20T00:16:18;16.70;99.90
14409;DHT22;7289;50.706;4.992;2023-07-20T00:18:47;16.70;99.90
14409;DHT22;7289;50.706;4.992;2023-07-20T00:21:15;16.80;99.90
14409;DHT22;7289;50.706;4.992;2023-07-20T00:23:43;16.80;99.90
14409;DHT22;7289;50.706;4.992;2023-07-20T00:26:12;16.80;99.90
14409;DHT22;7289;50.706;4.992;2023-07-20T00:28:40;16.80;99.90
14409;DHT22;7289;50.706;4.992;2023-07-20T00:31:10;16.80;99.90
14409;DHT22;7289;50.706;4.992;2023-07-20T00:33:38;16.80;99.90
14409;DHT22;7289;50.706;4.992;2023-07-20T00:36:07;16.90;99.90
14409;DHT22;7289;50.706;4.992;2023-07-20T00:38:35;17.00;99.90
14409;DHT22;7289;50.706;4.992;2023-07-20T00:41:03;17.00;99.90
14409;DHT22;7289;50.706;4.992;2023-07-20T00:43:32;17.00;99.90
14409;DHT22;7289;50.706;4.992;2023-07-20T00:46:00;16.90;99.90
14409;DHT22;7289;50.706;4.992;2023-07-20T00:48:31;16.80;99.90
14409;DHT22;7289;50.706;4.992;2023-07-20T00:51:00;16.80;99.90
14409;DHT22;7289;50.706;4.992;2023-07-20T00:53:30;16.70;99.90
14409;DHT22;7289;50.706;4.992;2023-07-20T00:56:00;16.80;99.90
14409;DHT22;7289;50.706;4.992;2023-07-20T00:58:29;16.80;99.90
14409;DHT22;7289;50.706;4.992;2023-07-20T01:00:57;16.80;99.90
14409;DHT22;7289;50.706;4.992;2023-07-20T01:03:27;16.80;99.90
14409;DHT22;7289;50.706;4.992;2023-07-20T01:06:04;16.80;99.90
14409;DHT22;7289;50.706;4.992;2023-07-20T01:08:37;16.90;99.90
14409;DHT22;7289;50.706;4.992;2023-07-20T01:11:16;16.90;99.90
14409;DHT22;7289;50.706;4.992;2023-07-20T01:13:44;16.90;99.90
14409;DHT22;7289;50.706;4.992;2023-07-20T01:16:13;16.90;99.90
14409;DHT22;7289;50.706;4.992;2023-07-20T01:18:41;16.90;99.90
14409;DHT22;7289;50.706;4.992;2023-07-20T01:21:16;16.90;99.90
14409;DHT22;7289;50.706;4.992;2023-07-20T01:24:11;17.00;99.90
14409;DHT22;7289;50.706;4.992;2023-07-20T01:29:55;16.90;99.90
14409;DHT22;7289;50.706;4.992;2023-07-20T01:32:33;16.90;99.90
14409;DHT22;7289;50.706;4.992;2023-07-20T01:35:05;16.90;99.90
14409;DHT22;7289;50.706;4.992;2023-07-20T01:37:34;16.90;99.90
14409;DHT22;7289;50.706;4.992;2023-07-20T01:40:04;16.90;99.90
14409;DHT22;7289;50.706;4.992;2023-07-20T01:42:33;17.00;99.90
14409;DHT22;7289;50.706;4.992;2023-07-20T01:45:01;17.00;99.90
14409;DHT22;7289;50.706;4.992;2023-07-20T01:47:31;17.00;99.90
14409;DHT22;7289;50.706;4.992;2023-07-20T01:50:00;17.00;99.90
14409;DHT22;7289;50.706;4.992;2023-07-20T01:52:29;17.00;99.90
14409;DHT22;7289;50.706;4.992;2023-07-20T01:54:58;17.00;99.90
14409;DHT22;7289;50.706;4.992;2023-07-20T01:57:26;17.10;99.90
14409;DHT22;7289;50.706;4.992;2023-07-20T01:59:55;17.10;99.90
14409;DHT22;7289;50.706;4.992;2023-07-20T02:02:26;17.10;99.90
14409;DHT22;7289;50.706;4.992;2023-07-20T02:04:54;17.10;99.90
14409;DHT22;7289;50.706;4.992;2023-07-20T02:07:24;17.10;99.90
14409;DHT22;7289;50.706;4.992;2023-07-20T02:09:53;17.10;99.90
14409;DHT22;7289;50.706;4.992;2023-07-20T02:12:21;17.20;99.90
14409;DHT22;7289;50.706;4.992;2023-07-20T02:14:49;17.10;99.90
14409;DHT22;7289;50.706;4.992;2023-07-20T02:17:19;17.20;99.90
14409;DHT22;7289;50.706;4.992;2023-07-20T02:19:50;17.20;99.90
14409;DHT22;7289;50.706;4.992;2023-07-20T02:22:18;17.30;99.90
14409;DHT22;7289;50.706;4.992;2023-07-20T02:24:48;17.30;99.90
14409;DHT22;7289;50.706;4.992;2023-07-20T02:27:18;17.20;99.90
14409;DHT22;7289;50.706;4.992;2023-07-20T02:29:46;17.30;99.90
14409;DHT22;7289;50.706;4.992;2023-07-20T02:32:14;17.30;99.90
14409;DHT22;7289;50.706;4.992;2023-07-20T02:34:43;17.20;99.90
14409;DHT22;7289;50.706;4.992;2023-07-20T02:37:11;17.20;99.90
14409;DHT22;7289;50.706;4.992;2023-07-20T02:39:40;17.20;99.90
14409;DHT22;7289;50.706;4.992;2023-07-20T02:42:10;17.20;99.90
14409;DHT22;7289;50.706;4.992;2023-07-20T02:44:39;17.10;99.90
14409;DHT22;7289;50.706;4.992;2023-07-20T02:47:07;17.10;99.90
14409;DHT22;7289;50.706;4.992;2023-07-20T02:49:36;17.10;99.90
14409;DHT22;7289;50.706;4.992;2023-07-20T02:52:08;17.00;99.90
14409;DHT22;7289;50.706;4.992;2023-07-20T02:54:36;17.00;99.90
14409;DHT22;7289;50.706;4.992;2023-07-20T02:57:05;17.00;99.90
14409;DHT22;7289;50.706;4.992;2023-07-20T02:59:35;16.90;99.90
14409;DHT22;7289;50.706;4.992;2023-07-20T03:02:03;16.90;99.90
14409;DHT22;7289;50.706;4.992;2023-07-20T03:04:32;16.90;99.90
14409;DHT22;7289;50.706;4.992;2023-07-20T03:07:00;16.90;99.90
14409;DHT22;7289;50.706;4.992;2023-07-20T03:09:30;16.80;99.90
14409;DHT22;7289;50.706;4.992;2023-07-20T03:11:58;16.80;99.90
14409;DHT22;7289;50.706;4.992;2023-07-20T03:14:27;16.80;99.90
14409;DHT22;7289;50.706;4.992;2023-07-20T03:16:57;16.70;99.90
14409;DHT22;7289;50.706;4.992;2023-07-20T03:19:26;16.60;99.90
14409;DHT22;7289;50.706;4.992;2023-07-20T03:21:55;16.50;99.90
14409;DHT22;7289;50.706;4.992;2023-07-20T03:24:23;16.50;99.90
14409;DHT22;7289;50.706;4.992;2023-07-20T03:26:52;16.50;99.90
14409;DHT22;7289;50.706;4.992;2023-07-20T03:29:20;16.50;99.90
14409;DHT22;7289;50.706;4.992;2023-07-20T03:31:49;16.50;99.90
14409;DHT22;7289;50.706;4.992;2023-07-20T03:34:19;16.40;99.90
14409;DHT22;7289;50.706;4.992;2023-07-20T03:36:47;16.40;99.90
14409;DHT22;7289;50.706;4.992;2023-07-20T03:39:16;16.40;99.90
14409;DHT22;7289;50.706;4.992;2023-07-20T03:41:44;16.40;99.90
14409;DHT22;7289;50.706;4.992;2023-07-20T03:44:12;16.40;99.90
14409;DHT22;7289;50.706;4.992;2023-07-20T03:46:41;16.50;99.90
14409;DHT22;7289;50.706;4.992;2023-07-20T03:49:09;16.60;99.90
14409;DHT22;7289;50.706;4.992;2023-07-20T03:51:39;16.60;99.90
14409;DHT22;7289;50.706;4.992;2023-07-20T03:54:09;16.60;99.90
14409;DHT22;7289;50.706;4.992;2023-07-20T03:56:37;16.60;99.90
14409;DHT22;7289;50.706;4.992;2023-07-20T03:59:05;16.70;99.90
14409;DHT22;7289;50.706;4.992;2023-07-20T04:01:34;16.70;99.90
14409;DHT22;7289;50.706;4.992;2023-07-20T04:04:06;16.80;99.90
14409;DHT22;7289;50.706;4.992;2023-07-20T04:06:35;16.80;99.90
14409;DHT22;7289;50.706;4.992;2023-07-20T04:09:05;16.80;99.90
14409;DHT22;7289;50.706;4.992;2023-07-20T04:11:33;16.90;99.90
14409;DHT22;7289;50.706;4.992;2023-07-20T04:14:02;16.90;99.90
14409;DHT22;7289;50.706;4.992;2023-07-20T04:16:30;17.00;99.90
14409;DHT22;7289;50.706;4.992;2023-07-20T04:18:59;17.00;99.90
14409;DHT22;7289;50.706;4.992;2023-07-20T04:21:28;17.10;99.90
14409;DHT22;7289;50.706;4.992;2023-07-20T04:23:56;17.10;99.90
14409;DHT22;7289;50.706;4.992;2023-07-20T04:26:26;17.10;99.90
14409;DHT22;7289;50.706;4.992;2023-07-20T04:28:54;17.20;99.90
14409;DHT22;7289;50.706;4.992;2023-07-20T04:31:49;17.20;99.90
14409;DHT22;7289;50.706;4.992;2023-07-20T04:34:17;17.40;99.90
14409;DHT22;7289;50.706;4.992;2023-07-20T04:36:46;17.40;99.90
14409;DHT22;7289;50.706;4.992;2023-07-20T04:39:15;17.40;99.90
14409;DHT22;7289;50.706;4.992;2023-07-20T04:42:04;17.40;99.90
14409;DHT22;7289;50.706;4.992;2023-07-20T04:44:32;17.50;99.90
14409;DHT22;7289;50.706;4.992;2023-07-20T04:47:01;17.50;99.90
14409;DHT22;7289;50.706;4.992;2023-07-20T04:49:34;17.60;99.90
14409;DHT22;7289;50.706;4.992;2023-07-20T04:52:04;17.60;99.90
14409;DHT22;7289;50.706;4.992;2023-07-20T04:54:32;17.60;99.90
14409;DHT22;7289;50.706;4.992;2023-07-20T04:57:00;17.80;99.90
14409;DHT22;7289;50.706;4.992;2023-07-20T04:59:33;17.90;99.90
14409;DHT22;7289;50.706;4.992;2023-07-20T05:02:01;18.00;99.90
14409;DHT22;7289;50.706;4.992;2023-07-20T05:04:30;18.10;99.90
14409;DHT22;7289;50.706;4.992;2023-07-20T05:07:06;18.20;99.90
14409;DHT22;7289;50.706;4.992;2023-07-20T05:09:34;18.30;99.90
14409;DHT22;7289;50.706;4.992;2023-07-20T05:12:03;18.40;99.90
14409;DHT22;7289;50.706;4.992;2023-07-20T05:14:34;18.50;99.90
14409;DHT22;7289;50.706;4.992;2023-07-20T05:17:02;18.50;99.90
14409;DHT22;7289;50.706;4.992;2023-07-20T05:19:30;18.60;99.90
14409;DHT22;7289;50.706;4.992;2023-07-20T05:21:59;18.70;99.90
14409;DHT22;7289;50.706;4.992;2023-07-20T05:24:27;18.90;99.90
14409;DHT22;7289;50.706;4.992;2023-07-20T05:26:57;18.90;99.90
14409;DHT22;7289;50.706;4.992;2023-07-20T05:29:25;19.00;99.90
14409;DHT22;7289;50.706;4.992;2023-07-20T05:31:55;19.10;99.90
14409;DHT22;7289;50.706;4.992;2023-07-20T05:34:23;18.90;99.90
14409;DHT22;7289;50.706;4.992;2023-07-20T05:36:53;18.80;99.90
14409;DHT22;7289;50.706;4.992;2023-07-20T05:39:21;18.90;99.90
14409;DHT22;7289;50.706;4.992;2023-07-20T05:41:50;18.90;99.90
14409;DHT22;7289;50.706;4.992;2023-07-20T05:44:19;19.00;99.90
14409;DHT22;7289;50.706;4.992;2023-07-20T05:46:47;19.10;99.90
14409;DHT22;7289;50.706;4.992;2023-07-20T05:49:25;19.20;99.90
14409;DHT22;7289;50.706;4.992;2023-07-20T05:51:54;19.30;99.90
14409;DHT22;7289;50.706;4.992;2023-07-20T05:54:24;19.40;99.90
14409;DHT22;7289;50.706;4.992;2023-07-20T05:56:52;19.50;99.90
14409;DHT22;7289;50.706;4.992;2023-07-20T05:59:21;19.70;99.90
14409;DHT22;7289;50.706;4.992;2023-07-20T06:01:50;19.80;99.90
14409;DHT22;7289;50.706;4.992;2023-07-20T06:04:19;19.70;99.90
14409;DHT22;7289;50.706;4.992;2023-07-20T06:06:49;19.60;99.90
14409;DHT22;7289;50.706;4.992;2023-07-20T06:09:17;19.70;99.90
14409;DHT22;7289;50.706;4.992;2023-07-20T06:11:46;19.80;99.90
14409;DHT22;7289;50.706;4.992;2023-07-20T06:14:14;19.90;99.90
14409;DHT22;7289;50.706;4.992;2023-07-20T06:16:43;19.90;99.90
14409;DHT22;7289;50.706;4.992;2023-07-20T06:19:11;19.60;99.90
14409;DHT22;7289;50.706;4.992;2023-07-20T06:21:40;19.60;99.90
14409;DHT22;7289;50.706;4.992;2023-07-20T06:24:10;19.50;99.90
14409;DHT22;7289;50.706;4.992;2023-07-20T06:26:39;19.40;99.90
14409;DHT22;7289;50.706;4.992;2023-07-20T06:29:08;19.50;99.90
14409;DHT22;7289;50.706;4.992;2023-07-20T06:31:37;19.50;99.90
14409;DHT22;7289;50.706;4.992;2023-07-20T06:34:05;19.70;99.90
14409;DHT22;7289;50.706;4.992;2023-07-20T06:36:34;19.70;99.90
14409;DHT22;7289;50.706;4.992;2023-07-20T06:39:03;19.50;99.90
14409;DHT22;7289;50.706;4.992;2023-07-20T06:41:36;19.40;99.90
14409;DHT22;7289;50.706;4.992;2023-07-20T06:44:07;19.50;99.90
14409;DHT22;7289;50.706;4.992;2023-07-20T06:46:36;19.50;99.90
14409;DHT22;7289;50.706;4.992;2023-07-20T06:49:06;19.30;99.90
14409;DHT22;7289;50.706;4.992;2023-07-20T06:51:37;19.30;99.90
14409;DHT22;7289;50.706;4.992;2023-07-20T06:54:06;19.50;99.90
14409;DHT22;7289;50.706;4.992;2023-07-20T06:56:36;19.80;99.90
14409;DHT22;7289;50.706;4.992;2023-07-20T06:59:12;20.00;99.90
14409;DHT22;7289;50.706;4.992;2023-07-20T07:01:40;19.90;99.90
14409;DHT22;7289;50.706;4.992;2023-07-20T07:04:09;20.00;99.90
14409;DHT22;7289;50.706;4.992;2023-07-20T07:06:37;20.00;99.90
14409;DHT22;7289;50.706;4.992;2023-07-20T07:09:06;20.00;99.90
14409;DHT22;7289;50.706;4.992;2023-07-20T07:11:38;19.90;99.90
14409;DHT22;7289;50.706;4.992;2023-07-20T07:14:06;20.00;99.90
14409;DHT22;7289;50.706;4.992;2023-07-20T07:16:35;20.00;99.90
14409;DHT22;7289;50.706;4.992;2023-07-20T07:19:05;20.20;99.90
14409;DHT22;7289;50.706;4.992;2023-07-20T07:21:35;20.20;99.90
14409;DHT22;7289;50.706;4.992;2023-07-20T07:24:04;20.40;99.90
14409;DHT22;7289;50.706;4.992;2023-07-20T07:26:34;20.40;99.90
14409;DHT22;7289;50.706;4.992;2023-07-20T07:29:04;20.40;99.90
14409;DHT22;7289;50.706;4.992;2023-07-20T07:31:34;20.50;99.90
14409;DHT22;7289;50.706;4.992;2023-07-20T07:34:03;20.60;99.90
14409;DHT22;7289;50.706;4.992;2023-07-20T07:36:33;20.70;99.90
14409;DHT22;7289;50.706;4.992;2023-07-20T07:39:01;20.80;99.90
14409;DHT22;7289;50.706;4.992;2023-07-20T07:41:50;21.10;99.90
14409;DHT22;7289;50.706;4.992;2023-07-20T07:44:19;21.40;98.90
14409;DHT22;7289;50.706;4.992;2023-07-20T07:46:48;21.40;98.80
14409;DHT22;7289;50.706;4.992;2023-07-20T07:49:17;21.50;99.00
14409;DHT22;7289;50.706;4.992;2023-07-20T07:51:46;21.70;98.40
14409;DHT22;7289;50.706;4.992;2023-07-20T07:54:15;21.80;98.20
14409;DHT22;7289;50.706;4.992;2023-07-20T07:56:43;21.90;97.90
14409;DHT22;7289;50.706;4.992;2023-07-20T07:59:12;22.10;97.90
14409;DHT22;7289;50.706;4.992;2023-07-20T08:01:42;22.20;97.20
14409;DHT22;7289;50.706;4.992;2023-07-20T08:04:10;22.20;97.20
14409;DHT22;7289;50.706;4.992;2023-07-20T08:06:38;22.30;96.80
14409;DHT22;7289;50.706;4.992;2023-07-20T08:09:07;22.30;96.70
14409;DHT22;7289;50.706;4.992;2023-07-20T08:11:35;22.40;96.70
14409;DHT22;7289;50.706;4.992;2023-07-20T08:14:04;22.30;96.60
14409;DHT22;7289;50.706;4.992;2023-07-20T08:16:32;22.40;96.70
14409;DHT22;7289;50.706;4.992;2023-07-20T08:19:03;22.40;96.40
14409;DHT22;7289;50.706;4.992;2023-07-20T08:21:31;22.40;95.90
14409;DHT22;7289;50.706;4.992;2023-07-20T08:23:59;22.30;95.70
14409;DHT22;7289;50.706;4.992;2023-07-20T08:26:28;21.80;96.60
14409;DHT22;7289;50.706;4.992;2023-07-20T08:28:56;21.90;96.90
14409;DHT22;7289;50.706;4.992;2023-07-20T08:31:25;22.00;97.00
14409;DHT22;7289;50.706;4.992;2023-07-20T08:33:55;21.90;97.10
14409;DHT22;7289;50.706;4.992;2023-07-20T08:36:25;22.10;97.00
14409;DHT22;7289;50.706;4.992;2023-07-20T08:38:54;22.40;96.20
14409;DHT22;7289;50.706;4.992;2023-07-20T08:41:23;22.90;95.90
14409;DHT22;7289;50.706;4.992;2023-07-20T08:43:54;23.30;94.90
14409;DHT22;7289;50.706;4.992;2023-07-20T08:46:27;23.40;94.20
14409;DHT22;7289;50.706;4.992;2023-07-20T08:48:56;23.40;93.30
14409;DHT22;7289;50.706;4.992;2023-07-20T08:51:27;23.50;93.30
14409;DHT22;7289;50.706;4.992;2023-07-20T08:53:56;23.50;93.20
14409;DHT22;7289;50.706;4.992;2023-07-20T08:56:25;23.30;92.60
14409;DHT22;7289;50.706;4.992;2023-07-20T08:58:54;23.00;93.00
14409;DHT22;7289;50.706;4.992;2023-07-20T09:01:22;23.30;93.70
14409;DHT22;7289;50.706;4.992;2023-07-20T09:03:51;23.30;92.80
14409;DHT22;7289;50.706;4.992;2023-07-20T09:06:20;23.40;93.20
14409;DHT22;7289;50.706;4.992;2023-07-20T09:08:50;23.60;92.30
14409;DHT22;7289;50.706;4.992;2023-07-20T09:11:19;23.70;91.10
14409;DHT22;7289;50.706;4.992;2023-07-20T09:13:47;23.70;91.70
14409;DHT22;7289;50.706;4.992;2023-07-20T09:16:18;23.80;91.30
14409;DHT22;7289;50.706;4.992;2023-07-20T09:18:46;23.80;91.30
14409;DHT22;7289;50.706;4.992;2023-07-20T09:21:17;23.70;90.10
14409;DHT22;7289;50.706;4.992;2023-07-20T09:23:45;23.40;90.60
14409;DHT22;7289;50.706;4.992;2023-07-20T09:26:17;23.30;91.10
14409;DHT22;7289;50.706;4.992;2023-07-20T09:28:49;23.30;91.10
14409;DHT22;7289;50.706;4.992;2023-07-20T09:31:18;23.30;90.90
14409;DHT22;7289;50.706;4.992;2023-07-20T09:33:48;23.40;91.40
14409;DHT22;7289;50.706;4.992;2023-07-20T09:36:20;23.70;90.70
14409;DHT22;7289;50.706;4.992;2023-07-20T09:39:08;23.70;90.00
14409;DHT22;7289;50.706;4.992;2023-07-20T09:41:41;23.70;90.10
14409;DHT22;7289;50.706;4.992;2023-07-20T09:44:14;23.50;88.80
14409;DHT22;7289;50.706;4.992;2023-07-20T09:46:46;23.50;88.90
14409;DHT22;7289;50.706;4.992;2023-07-20T09:49:18;23.60;90.00
14409;DHT22;7289;50.706;4.992;2023-07-20T09:51:49;23.80;88.90
14409;DHT22;7289;50.706;4.992;2023-07-20T09:54:18;24.00;87.20
14409;DHT22;7289;50.706;4.992;2023-07-20T09:56:51;23.70;86.00
14409;DHT22;7289;50.706;4.992;2023-07-20T09:59:20;23.30;86.50
14409;DHT22;7289;50.706;4.992;2023-07-20T10:01:49;23.50;88.30
14409;DHT22;7289;50.706;4.992;2023-07-20T10:04:21;24.00;89.40
14409;DHT22;7289;50.706;4.992;2023-07-20T10:06:52;24.20;86.40
14409;DHT22;7289;50.706;4.992;2023-07-20T10:09:24;24.50;85.10
14409;DHT22;7289;50.706;4.992;2023-07-20T10:11:56;24.70;85.30
14409;DHT22;7289;50.706;4.992;2023-07-20T10:14:47;24.70;86.00
14409;DHT22;7289;50.706;4.992;2023-07-20T10:17:20;24.60;86.10
14409;DHT22;7289;50.706;4.992;2023-07-20T10:19:52;24.80;84.40
14409;DHT22;7289;50.706;4.992;2023-07-20T10:22:25;24.60;82.40
14409;DHT22;7289;50.706;4.992;2023-07-20T10:24:54;25.00;83.40
14409;DHT22;7289;50.706;4.992;2023-07-20T10:27:27;25.10;82.80
14409;DHT22;7289;50.706;4.992;2023-07-20T10:29:57;25.00;80.80
14409;DHT22;7289;50.706;4.992;2023-07-20T10:32:26;24.90;80.70
14409;DHT22;7289;50.706;4.992;2023-07-20T10:34:56;24.90;81.00
14409;DHT22;7289;50.706;4.992;2023-07-20T10:37:47;25.00;81.80
14409;DHT22;7289;50.706;4.992;2023-07-20T10:40:27;25.20;80.50
14409;DHT22;7289;50.706;4.992;2023-07-20T10:43:01;25.30;80.80
14409;DHT22;7289;50.706;4.992;2023-07-20T10:45:42;25.30;78.10
14409;DHT22;7289;50.706;4.992;2023-07-20T10:48:14;25.40;79.70
14409;DHT22;7289;50.706;4.992;2023-07-20T10:50:43;25.60;78.00
14409;DHT22;7289;50.706;4.992;2023-07-20T10:53:13;26.00;80.30
14409;DHT22;7289;50.706;4.992;2023-07-20T10:55:42;26.20;77.30
14409;DHT22;7289;50.706;4.992;2023-07-20T10:58:14;26.00;77.70
14409;DHT22;7289;50.706;4.992;2023-07-20T11:01:01;25.90;79.40
14409;DHT22;7289;50.706;4.992;2023-07-20T11:03:32;25.40;76.70
14409;DHT22;7289;50.706;4.992;2023-07-20T11:06:32;25.30;77.10
14409;DHT22;7289;50.706;4.992;2023-07-20T11:09:06;24.90;77.60
14409;DHT22;7289;50.706;4.992;2023-07-20T11:11:38;25.20;77.60
14409;DHT22;7289;50.706;4.992;2023-07-20T11:14:09;25.50;77.60
14409;DHT22;7289;50.706;4.992;2023-07-20T11:16:40;25.70;75.60
14409;DHT22;7289;50.706;4.992;2023-07-20T11:19:16;25.40;75.40
14409;DHT22;7289;50.706;4.992;2023-07-20T11:21:50;25.70;77.00
14409;DHT22;7289;50.706;4.992;2023-07-20T11:24:29;25.90;75.40
14409;DHT22;7289;50.706;4.992;2023-07-20T11:26:57;26.10;75.50
14409;DHT22;7289;50.706;4.992;2023-07-20T11:29:27;26.40;74.80
14409;DHT22;7289;50.706;4.992;2023-07-20T11:32:01;26.50;75.10
14409;DHT22;7289;50.706;4.992;2023-07-20T11:34:33;26.40;76.30
14409;DHT22;7289;50.706;4.992;2023-07-20T11:37:02;26.60;75.90
14409;DHT22;7289;50.706;4.992;2023-07-20T11:39:34;26.50;74.60
14409;DHT22;7289;50.706;4.992;2023-07-20T11:42:03;26.40;75.10
14409;DHT22;7289;50.706;4.992;2023-07-20T11:44:34;26.30;74.00
14409;DHT22;7289;50.706;4.992;2023-07-20T11:47:04;25.90;75.10
14409;DHT22;7289;50.706;4.992;2023-07-20T11:49:35;26.00;75.70
14409;DHT22;7289;50.706;4.992;2023-07-20T11:52:06;26.00;77.90
14409;DHT22;7289;50.706;4.992;2023-07-20T11:54:35;26.20;75.40
14409;DHT22;7289;50.706;4.992;2023-07-20T11:57:04;26.20;74.40
14409;DHT22;7289;50.706;4.992;2023-07-20T11:59:34;25.90;72.80
14409;DHT22;7289;50.706;4.992;2023-07-20T12:02:03;25.50;73.70
14409;DHT22;7289;50.706;4.992;2023-07-20T12:04:32;25.30;74.60
14409;DHT22;7289;50.706;4.992;2023-07-20T12:07:01;25.10;76.10
14409;DHT22;7289;50.706;4.992;2023-07-20T12:09:30;25.10;76.50
14409;DHT22;7289;50.706;4.992;2023-07-20T12:12:12;25.40;78.40
14409;DHT22;7289;50.706;4.992;2023-07-20T12:14:44;25.60;76.50
14409;DHT22;7289;50.706;4.992;2023-07-20T12:17:13;25.80;77.60
14409;DHT22;7289;50.706;4.992;2023-07-20T12:19:42;26.10;75.60
14409;DHT22;7289;50.706;4.992;2023-07-20T12:22:10;26.20;74.50
14409;DHT22;7289;50.706;4.992;2023-07-20T12:24:39;26.40;77.10
14409;DHT22;7289;50.706;4.992;2023-07-20T12:27:07;26.30;72.60
14409;DHT22;7289;50.706;4.992;2023-07-20T12:29:35;26.10;74.60
14409;DHT22;7289;50.706;4.992;2023-07-20T12:32:06;26.00;75.70
14409;DHT22;7289;50.706;4.992;2023-07-20T12:34:35;26.30;76.40
14409;DHT22;7289;50.706;4.992;2023-07-20T12:37:04;26.60;75.20
14409;DHT22;7289;50.706;4.992;2023-07-20T12:39:32;26.60;73.10
14409;DHT22;7289;50.706;4.992;2023-07-20T12:42:01;26.90;75.60
14409;DHT22;7289;50.706;4.992;2023-07-20T12:44:30;26.90;73.20
14409;DHT22;7289;50.706;4.992;2023-07-20T12:46:58;26.70;72.20
14409;DHT22;7289;50.706;4.992;2023-07-20T12:49:28;26.70;71.80
14409;DHT22;7289;50.706;4.992;2023-07-20T12:51:56;26.50;72.10
14409;DHT22;7289;50.706;4.992;2023-07-20T12:54:25;26.80;71.50
14409;DHT22;7289;50.706;4.992;2023-07-20T12:56:56;27.00;72.60
14409;DHT22;7289;50.706;4.992;2023-07-20T12:59:28;27.30;72.00
14409;DHT22;7289;50.706;4.992;2023-07-20T13:01:56;27.60;72.60
14409;DHT22;7289;50.706;4.992;2023-07-20T13:04:24;27.90;71.90
14409;DHT22;7289;50.706;4.992;2023-07-20T13:06:54;28.00;70.40
14409;DHT22;7289;50.706;4.992;2023-07-20T13:09:22;27.80;67.60
14409;DHT22;7289;50.706;4.992;2023-07-20T13:11:51;27.80;67.80
14409;DHT22;7289;50.706;4.992;2023-07-20T13:14:19;27.60;67.80
14409;DHT22;7289;50.706;4.992;2023-07-20T13:16:48;27.70;68.50
14409;DHT22;7289;50.706;4.992;2023-07-20T13:19:16;27.70;70.00
14409;DHT22;7289;50.706;4.992;2023-07-20T13:21:44;27.40;69.00
14409;DHT22;7289;50.706;4.992;2023-07-20T13:24:14;27.50;68.40
14409;DHT22;7289;50.706;4.992;2023-07-20T13:26:43;27.80;69.80
14409;DHT22;7289;50.706;4.992;2023-07-20T13:29:11;28.00;68.00
14409;DHT22;7289;50.706;4.992;2023-07-20T13:31:40;27.70;67.80
14409;DHT22;7289;50.706;4.992;2023-07-20T13:34:08;27.70;69.20
14409;DHT22;7289;50.706;4.992;2023-07-20T13:36:37;27.70;66.70
14409;DHT22;7289;50.706;4.992;2023-07-20T13:39:05;27.70;67.50
14409;DHT22;7289;50.706;4.992;2023-07-20T13:41:36;27.60;68.60
14409;DHT22;7289;50.706;4.992;2023-07-20T13:44:05;27.80;68.60
14409;DHT22;7289;50.706;4.992;2023-07-20T13:46:34;27.80;69.40
14409;DHT22;7289;50.706;4.992;2023-07-20T13:49:05;27.40;71.30
14409;DHT22;7289;50.706;4.992;2023-07-20T13:51:36;27.70;73.00
14409;DHT22;7289;50.706;4.992;2023-07-20T13:54:05;27.80;72.20
14409;DHT22;7289;50.706;4.992;2023-07-20T13:56:38;27.60;72.90
14409;DHT22;7289;50.706;4.992;2023-07-20T13:59:09;28.00;72.60
14409;DHT22;7289;50.706;4.992;2023-07-20T14:01:38;28.00;69.50
14409;DHT22;7289;50.706;4.992;2023-07-20T14:04:08;28.20;71.90
14409;DHT22;7289;50.706;4.992;2023-07-20T14:06:37;27.90;68.60
14409;DHT22;7289;50.706;4.992;2023-07-20T14:09:06;27.60;68.30
14409;DHT22;7289;50.706;4.992;2023-07-20T14:11:34;27.50;69.40
14409;DHT22;7289;50.706;4.992;2023-07-20T14:14:07;27.70;70.30
14409;DHT22;7289;50.706;4.992;2023-07-20T14:16:35;27.60;69.40
14409;DHT22;7289;50.706;4.992;2023-07-20T14:19:04;27.50;69.30
14409;DHT22;7289;50.706;4.992;2023-07-20T14:21:33;27.10;69.80
14409;DHT22;7289;50.706;4.992;2023-07-20T14:24:01;26.80;68.80
14409;DHT22;7289;50.706;4.992;2023-07-20T14:26:30;26.10;69.90
14409;DHT22;7289;50.706;4.992;2023-07-20T14:29:00;26.10;71.90
14409;DHT22;7289;50.706;4.992;2023-07-20T14:31:30;26.00;71.60
14409;DHT22;7289;50.706;4.992;2023-07-20T14:33:59;26.00;71.50
14409;DHT22;7289;50.706;4.992;2023-07-20T14:36:27;25.70;71.00
14409;DHT22;7289;50.706;4.992;2023-07-20T14:38:57;25.50;71.30
14409;DHT22;7289;50.706;4.992;2023-07-20T14:41:27;25.50;72.30
14409;DHT22;7289;50.706;4.992;2023-07-20T14:43:55;25.30;74.10
14409;DHT22;7289;50.706;4.992;2023-07-20T14:46:24;25.10;75.00
14409;DHT22;7289;50.706;4.992;2023-07-20T14:48:55;24.80;76.20
14409;DHT22;7289;50.706;4.992;2023-07-20T14:51:23;24.80;76.40
14409;DHT22;7289;50.706;4.992;2023-07-20T14:54:05;24.70;76.70
14409;DHT22;7289;50.706;4.992;2023-07-20T14:56:34;24.50;77.00
14409;DHT22;7289;50.706;4.992;2023-07-20T14:59:04;24.30;77.80
14409;DHT22;7289;50.706;4.992;2023-07-20T15:01:33;24.20;77.10
14409;DHT22;7289;50.706;4.992;2023-07-20T15:04:03;24.40;78.10
14409;DHT22;7289;50.706;4.992;2023-07-20T15:06:32;24.50;76.90
14409;DHT22;7289;50.706;4.992;2023-07-20T15:09:00;24.30;78.30
14409;DHT22;7289;50.706;4.992;2023-07-20T15:11:29;24.50;77.70
14409;DHT22;7289;50.706;4.992;2023-07-20T15:13:57;24.70;76.90
14409;DHT22;7289;50.706;4.992;2023-07-20T15:16:25;24.90;76.00
14409;DHT22;7289;50.706;4.992;2023-07-20T15:18:54;25.00;76.90
14409;DHT22;7289;50.706;4.992;2023-07-20T15:21:24;25.40;76.50
14409;DHT22;7289;50.706;4.992;2023-07-20T15:23:57;25.50;75.40
14409;DHT22;7289;50.706;4.992;2023-07-20T15:26:25;25.60;76.90
14409;DHT22;7289;50.706;4.992;2023-07-20T15:28:54;25.70;76.30
14409;DHT22;7289;50.706;4.992;2023-07-20T15:31:22;25.40;76.50
14409;DHT22;7289;50.706;4.992;2023-07-20T15:33:54;25.30;76.50
14409;DHT22;7289;50.706;4.992;2023-07-20T15:36:24;25.30;76.20
14409;DHT22;7289;50.706;4.992;2023-07-20T15:38:53;25.40;77.30
14409;DHT22;7289;50.706;4.992;2023-07-20T15:41:21;25.40;76.00
14409;DHT22;7289;50.706;4.992;2023-07-20T15:43:51;25.80;75.10
14409;DHT22;7289;50.706;4.992;2023-07-20T15:46:44;25.80;74.70
14409;DHT22;7289;50.706;4.992;2023-07-20T15:49:16;25.80;75.40
14409;DHT22;7289;50.706;4.992;2023-07-20T15:51:45;25.90;73.90
14409;DHT22;7289;50.706;4.992;2023-07-20T15:54:14;25.90;74.50
14409;DHT22;7289;50.706;4.992;2023-07-20T15:56:43;25.70;75.00
14409;DHT22;7289;50.706;4.992;2023-07-20T15:59:14;25.60;77.40
14409;DHT22;7289;50.706;4.992;2023-07-20T16:01:43;25.80;77.20
14409;DHT22;7289;50.706;4.992;2023-07-20T16:04:13;25.70;75.80
14409;DHT22;7289;50.706;4.992;2023-07-20T16:06:42;25.70;76.60